Terminal Aerodrome Forecast
Issued by NWS

Home | Current Version | Previous Version | Text Only | Print | Product List | Glossary On
Versions: 1 2 3 4 5 6 7 8 9 10 11 12 13 14 15
000
FTUS42 TJSJ 231124
TAFJBQ
TAF
TJBQ 231124Z 2312/2412 10007KT P6SM VCSH SCT030 SCT050
     FM231300 07015KT P6SM FEW035 SCT045
     FM231800 08014KT P6SM VCTS SCT020 SCT035CB BKN050
     FM232030 10008KT P6SM VCSH SCT020=

USA.gov is the U.S. government's official web portal to all federal, state and local government web resources and services.